Friday, October 24, 2014
23:14 UTC
  |  Log In   |  Register Free
Airport Search:

Pearson Field Airport
(KVUO)

Pearson Field Airport Diagram
No Airport Diagram Available

FAA data valid effective September 18, 2014 - November 13, 2014 (unless otherwise noted).

 
 
 
 
 
 
 
 
 
 
 
 
 
 

Current Aviation Weather for Pearson Field Airport (KVUO)

The most recent METAR observation for KVUO was updated at: 2219
METAR Summary (Translated METAR)
KVUO
242153Z AUTO 00000KT 9SM -RA OVC080 13/11 A2990 RMK AO2 RAB05 SLP123 P0001 T01280106
KPDX
242153Z 30003KT 10SM -RA FEW055 BKN070 OVC090 13/12 A2990 RMK AO2 SLP124 P0002 T01280117
(3.1 nm SE from KVUO)
KTTD
242153Z 10013KT 8SM -RA BKN075 OVC090 13/09 A2988 RMK AO2 RAB16 SLP119 P0001 T01330094
(11.5 nm SE from KVUO)
TAF Summary (Translated TAF)
KPDX
(3.1 nm SE from KVUO)
242052Z 2421/2518 09010KT 6SM -RA SCT060 BKN080 FM250600 10014KT P6SM SCT050 OVC100 FM251300 10010KT P6SM OVC100
KTTD
(11.5 nm SE from KVUO)
242049Z 2421/2518 08013KT 6SM -RA BKN050 FM250600 09020G30KT P6SM SCT050 BKN100 FM251300 09015G20KT P6SM BKN050
  Airport Weather Conditions for KVUO

 Current Weather at VUO
55° F
Light Rain
North winds at 0.0 mph
VUO NOAA Radar

Pressure: 29.90 in
Humidity: 87%
Wind: Calm
Dew Point: 51.1°F
Visibility: 9.00 mi


Airport Weather Forecast for KVUO

Translated METAR and TAF for KVUO
Translated METAR for KVUO (2309 UTC 24 October 2014)
found at http://aviationweather.gov/adds/metars/
 
METAR text: KVUO 242253Z AUTO 02003KT 6SM -RA BR OVC080 13/11 A2986 RMK AO2 SLP112 P0004 T01280111
Conditions at: KVUO (VANCOUVER , WA, US) observed 2253 UTC 24 October 2014
Temperature: 12.8°C (55°F)
Dewpoint: 11.1°C (52°F) [RH = 89%]
Pressure (altimeter): 29.86 inches Hg (1011.3 mb)
[Sea-level pressure: 1011.2 mb]
Winds: from the NNE (20 degrees) at 3 MPH (3 knots; 1.6 m/s)
Visibility: 6 miles (10 km)
Ceiling: 8000 feet AGL
Clouds: overcast cloud deck at 8000 feet AGL
Weather: -RA BR  (light rain, mist)
Translated TAF for KVUO

There is no translated TAF available for this airport

Find All Airport Services Find A Hotel Find A Rental Car Find A Golf Course Find A Restaurant $100 Hamburger



FBO's on the Field
FBO Company Facility Photos Services Transportation Aviation Fuel Prices: Prices include tax
Catering Weather Repair Courtesy Rental Type 100LL JetA JetA+ MOGAS 8087
 
Aero Maintenance Inc

This FBO has not yet been rated
FS:AirBP
Last Updated: Sep-25
Login to update fuel prices
SS:
Contact Aero Maintenance IncMore FBO Information
 
Add another FBO Facility Photos Catering Weather Repair Courtesy Rental Type 100LL JetA JetA+ MOGAS 8087
Services Transportation Aviation Fuel Prices: Prices include tax


model-print
model-print
model-print
model-print